sensor_id;sensor_type;location;lat;lon;timestamp;P1;durP1;ratioP1;P2;durP2;ratioP2
9918;SDS011;4998;51.024;13.828;2023-01-01T00:00:13;22.20;;;12.97;;
9918;SDS011;4998;51.024;13.828;2023-01-01T00:02:40;11.80;;;9.70;;
9918;SDS011;4998;51.024;13.828;2023-01-01T00:05:08;8.20;;;7.30;;
9918;SDS011;4998;51.024;13.828;2023-01-01T00:07:35;11.97;;;6.70;;
9918;SDS011;4998;51.024;13.828;2023-01-01T00:10:02;5.70;;;5.10;;
9918;SDS011;4998;51.024;13.828;2023-01-01T00:12:48;6.37;;;4.80;;
9918;SDS011;4998;51.024;13.828;2023-01-01T00:15:15;6.73;;;3.90;;
9918;SDS011;4998;51.024;13.828;2023-01-01T00:17:43;4.23;;;3.83;;
9918;SDS011;4998;51.024;13.828;2023-01-01T00:20:10;4.47;;;3.17;;
9918;SDS011;4998;51.024;13.828;2023-01-01T00:22:37;3.20;;;2.90;;
9918;SDS011;4998;51.024;13.828;2023-01-01T00:25:05;3.53;;;2.80;;
9918;SDS011;4998;51.024;13.828;2023-01-01T00:27:32;3.17;;;2.87;;
9918;SDS011;4998;51.024;13.828;2023-01-01T00:30:01;3.13;;;2.67;;
9918;SDS011;4998;51.024;13.828;2023-01-01T00:32:28;2.60;;;2.40;;
9918;SDS011;4998;51.024;13.828;2023-01-01T00:34:55;2.87;;;2.67;;
9918;SDS011;4998;51.024;13.828;2023-01-01T00:37:22;2.83;;;2.50;;
9918;SDS011;4998;51.024;13.828;2023-01-01T00:39:50;3.70;;;3.40;;
9918;SDS011;4998;51.024;13.828;2023-01-01T00:42:16;4.03;;;3.60;;
9918;SDS011;4998;51.024;13.828;2023-01-01T00:44:44;5.90;;;3.40;;
9918;SDS011;4998;51.024;13.828;2023-01-01T00:47:12;6.30;;;3.37;;
9918;SDS011;4998;51.024;13.828;2023-01-01T00:49:39;4.00;;;3.60;;
9918;SDS011;4998;51.024;13.828;2023-01-01T00:52:06;3.90;;;3.50;;
9918;SDS011;4998;51.024;13.828;2023-01-01T00:54:33;5.07;;;3.97;;
9918;SDS011;4998;51.024;13.828;2023-01-01T00:57:00;4.57;;;3.37;;
9918;SDS011;4998;51.024;13.828;2023-01-01T00:59:27;3.37;;;3.07;;
9918;SDS011;4998;51.024;13.828;2023-01-01T01:01:54;3.33;;;3.03;;
9918;SDS011;4998;51.024;13.828;2023-01-01T01:04:23;3.70;;;3.23;;
9918;SDS011;4998;51.024;13.828;2023-01-01T01:06:50;3.20;;;2.90;;
9918;SDS011;4998;51.024;13.828;2023-01-01T01:09:17;4.83;;;3.17;;
9918;SDS011;4998;51.024;13.828;2023-01-01T01:11:44;3.50;;;3.20;;
9918;SDS011;4998;51.024;13.828;2023-01-01T01:14:12;4.30;;;2.77;;
9918;SDS011;4998;51.024;13.828;2023-01-01T01:16:39;3.60;;;2.73;;
9918;SDS011;4998;51.024;13.828;2023-01-01T01:19:06;3.30;;;3.00;;
9918;SDS011;4998;51.024;13.828;2023-01-01T01:21:39;3.10;;;2.80;;
9918;SDS011;4998;51.024;13.828;2023-01-01T01:24:06;3.17;;;2.80;;
9918;SDS011;4998;51.024;13.828;2023-01-01T01:26:35;3.53;;;3.17;;
9918;SDS011;4998;51.024;13.828;2023-01-01T01:29:02;3.07;;;2.83;;
9918;SDS011;4998;51.024;13.828;2023-01-01T01:31:30;3.50;;;3.17;;
9918;SDS011;4998;51.024;13.828;2023-01-01T01:33:58;3.43;;;2.93;;
9918;SDS011;4998;51.024;13.828;2023-01-01T01:36:26;3.20;;;2.90;;
9918;SDS011;4998;51.024;13.828;2023-01-01T01:38:55;5.67;;;3.20;;
9918;SDS011;4998;51.024;13.828;2023-01-01T01:41:23;5.10;;;3.20;;
9918;SDS011;4998;51.024;13.828;2023-01-01T01:43:52;7.40;;;4.50;;
9918;SDS011;4998;51.024;13.828;2023-01-01T01:46:23;13.00;;;5.60;;
9918;SDS011;4998;51.024;13.828;2023-01-01T01:48:55;10.07;;;6.63;;
9918;SDS011;4998;51.024;13.828;2023-01-01T01:51:26;5.23;;;4.07;;
9918;SDS011;4998;51.024;13.828;2023-01-01T01:53:59;7.87;;;2.60;;
9918;SDS011;4998;51.024;13.828;2023-01-01T01:56:33;3.10;;;2.37;;
9918;SDS011;4998;51.024;13.828;2023-01-01T01:59:05;3.93;;;2.50;;
9918;SDS011;4998;51.024;13.828;2023-01-01T02:01:32;3.17;;;2.70;;
9918;SDS011;4998;51.024;13.828;2023-01-01T02:04:00;3.03;;;2.30;;
9918;SDS011;4998;51.024;13.828;2023-01-01T02:06:28;2.60;;;2.40;;
9918;SDS011;4998;51.024;13.828;2023-01-01T02:08:59;3.20;;;2.30;;
9918;SDS011;4998;51.024;13.828;2023-01-01T02:11:29;3.40;;;2.23;;
9918;SDS011;4998;51.024;13.828;2023-01-01T02:13:57;2.53;;;2.30;;
9918;SDS011;4998;51.024;13.828;2023-01-01T02:16:26;4.50;;;2.40;;
9918;SDS011;4998;51.024;13.828;2023-01-01T02:18:59;2.40;;;2.20;;
9918;SDS011;4998;51.024;13.828;2023-01-01T02:21:33;4.43;;;2.10;;
9918;SDS011;4998;51.024;13.828;2023-01-01T02:24:16;2.37;;;2.17;;
9918;SDS011;4998;51.024;13.828;2023-01-01T02:27:07;2.50;;;1.80;;
9918;SDS011;4998;51.024;13.828;2023-01-01T02:29:43;2.80;;;2.30;;
9918;SDS011;4998;51.024;13.828;2023-01-01T02:32:14;2.00;;;1.80;;
9918;SDS011;4998;51.024;13.828;2023-01-01T02:34:47;1.80;;;1.63;;
9918;SDS011;4998;51.024;13.828;2023-01-01T02:37:18;1.70;;;1.60;;
9918;SDS011;4998;51.024;13.828;2023-01-01T02:39:49;3.27;;;1.50;;
9918;SDS011;4998;51.024;13.828;2023-01-01T02:42:21;2.80;;;1.60;;
9918;SDS011;4998;51.024;13.828;2023-01-01T02:44:51;5.90;;;1.67;;
9918;SDS011;4998;51.024;13.828;2023-01-01T02:47:23;2.23;;;2.00;;
9918;SDS011;4998;51.024;13.828;2023-01-01T02:49:53;2.57;;;1.70;;
9918;SDS011;4998;51.024;13.828;2023-01-01T02:55:33;2.33;;;1.67;;
9918;SDS011;4998;51.024;13.828;2023-01-01T02:58:11;2.33;;;1.60;;
9918;SDS011;4998;51.024;13.828;2023-01-01T03:01:02;2.33;;;1.60;;
9918;SDS011;4998;51.024;13.828;2023-01-01T03:03:36;1.60;;;1.50;;
9918;SDS011;4998;51.024;13.828;2023-01-01T03:06:06;2.97;;;1.83;;
9918;SDS011;4998;51.024;13.828;2023-01-01T03:08:50;1.80;;;1.70;;
9918;SDS011;4998;51.024;13.828;2023-01-01T03:11:22;2.07;;;1.60;;
9918;SDS011;4998;51.024;13.828;2023-01-01T03:13:56;2.00;;;1.73;;
9918;SDS011;4998;51.024;13.828;2023-01-01T03:16:32;2.13;;;1.70;;
9918;SDS011;4998;51.024;13.828;2023-01-01T03:19:02;1.93;;;1.50;;
9918;SDS011;4998;51.024;13.828;2023-01-01T03:21:37;5.80;;;1.77;;
9918;SDS011;4998;51.024;13.828;2023-01-01T03:24:08;2.00;;;1.90;;
9918;SDS011;4998;51.024;13.828;2023-01-01T03:26:41;2.03;;;1.50;;
9918;SDS011;4998;51.024;13.828;2023-01-01T03:29:09;3.40;;;1.93;;
9918;SDS011;4998;51.024;13.828;2023-01-01T03:31:41;2.00;;;1.80;;
9918;SDS011;4998;51.024;13.828;2023-01-01T03:34:10;5.77;;;1.80;;
9918;SDS011;4998;51.024;13.828;2023-01-01T03:36:42;1.70;;;1.50;;
9918;SDS011;4998;51.024;13.828;2023-01-01T03:39:13;2.50;;;1.73;;
9918;SDS011;4998;51.024;13.828;2023-01-01T03:41:45;1.77;;;1.60;;
9918;SDS011;4998;51.024;13.828;2023-01-01T03:44:20;3.53;;;1.50;;
9918;SDS011;4998;51.024;13.828;2023-01-01T03:46:52;2.97;;;1.80;;
9918;SDS011;4998;51.024;13.828;2023-01-01T03:49:19;3.87;;;1.80;;
9918;SDS011;4998;51.024;13.828;2023-01-01T03:51:52;2.33;;;1.53;;
9918;SDS011;4998;51.024;13.828;2023-01-01T03:54:26;4.87;;;2.03;;
9918;SDS011;4998;51.024;13.828;2023-01-01T03:57:03;4.17;;;1.63;;
9918;SDS011;4998;51.024;13.828;2023-01-01T03:59:37;2.27;;;1.67;;
9918;SDS011;4998;51.024;13.828;2023-01-01T04:02:10;9.03;;;1.83;;
9918;SDS011;4998;51.024;13.828;2023-01-01T04:04:41;2.23;;;1.50;;
9918;SDS011;4998;51.024;13.828;2023-01-01T04:07:08;3.33;;;2.27;;
9918;SDS011;4998;51.024;13.828;2023-01-01T04:09:36;4.93;;;2.17;;
9918;SDS011;4998;51.024;13.828;2023-01-01T04:12:05;5.93;;;1.80;;
9918;SDS011;4998;51.024;13.828;2023-01-01T04:14:34;3.43;;;1.70;;
9918;SDS011;4998;51.024;13.828;2023-01-01T04:17:02;4.00;;;1.73;;
9918;SDS011;4998;51.024;13.828;2023-01-01T04:19:32;3.80;;;1.80;;
9918;SDS011;4998;51.024;13.828;2023-01-01T04:22:00;2.33;;;1.90;;
9918;SDS011;4998;51.024;13.828;2023-01-01T04:24:27;3.60;;;1.90;;
9918;SDS011;4998;51.024;13.828;2023-01-01T04:26:55;4.30;;;1.63;;
9918;SDS011;4998;51.024;13.828;2023-01-01T04:29:22;4.63;;;1.90;;
9918;SDS011;4998;51.024;13.828;2023-01-01T04:31:49;2.80;;;1.77;;
9918;SDS011;4998;51.024;13.828;2023-01-01T04:34:16;5.50;;;1.87;;
9918;SDS011;4998;51.024;13.828;2023-01-01T04:36:44;3.20;;;1.83;;
9918;SDS011;4998;51.024;13.828;2023-01-01T04:39:12;2.97;;;1.80;;
9918;SDS011;4998;51.024;13.828;2023-01-01T04:41:39;3.20;;;1.90;;
9918;SDS011;4998;51.024;13.828;2023-01-01T04:44:06;5.13;;;1.83;;
9918;SDS011;4998;51.024;13.828;2023-01-01T04:46:33;3.23;;;1.67;;
9918;SDS011;4998;51.024;13.828;2023-01-01T04:49:00;1.77;;;1.63;;
9918;SDS011;4998;51.024;13.828;2023-01-01T04:51:27;2.33;;;1.57;;
9918;SDS011;4998;51.024;13.828;2023-01-01T04:53:57;6.10;;;2.10;;
9918;SDS011;4998;51.024;13.828;2023-01-01T04:56:24;4.33;;;2.00;;
9918;SDS011;4998;51.024;13.828;2023-01-01T04:58:51;2.07;;;1.70;;
9918;SDS011;4998;51.024;13.828;2023-01-01T05:01:20;6.87;;;2.10;;
9918;SDS011;4998;51.024;13.828;2023-01-01T05:03:48;2.33;;;2.03;;
9918;SDS011;4998;51.024;13.828;2023-01-01T05:06:15;3.53;;;1.70;;
9918;SDS011;4998;51.024;13.828;2023-01-01T05:08:44;5.40;;;1.90;;
9918;SDS011;4998;51.024;13.828;2023-01-01T05:11:14;7.00;;;1.63;;
9918;SDS011;4998;51.024;13.828;2023-01-01T05:13:42;5.20;;;2.00;;
9918;SDS011;4998;51.024;13.828;2023-01-01T05:16:10;3.00;;;1.60;;
9918;SDS011;4998;51.024;13.828;2023-01-01T05:18:38;2.60;;;1.90;;
9918;SDS011;4998;51.024;13.828;2023-01-01T05:21:07;3.27;;;1.70;;
9918;SDS011;4998;51.024;13.828;2023-01-01T05:23:37;2.00;;;1.60;;
9918;SDS011;4998;51.024;13.828;2023-01-01T05:26:08;3.47;;;1.83;;
9918;SDS011;4998;51.024;13.828;2023-01-01T05:28:37;3.17;;;1.90;;
9918;SDS011;4998;51.024;13.828;2023-01-01T05:31:05;4.83;;;1.90;;
9918;SDS011;4998;51.024;13.828;2023-01-01T05:33:33;4.60;;;1.97;;
9918;SDS011;4998;51.024;13.828;2023-01-01T05:36:01;5.90;;;2.20;;
9918;SDS011;4998;51.024;13.828;2023-01-01T05:38:30;3.30;;;2.40;;
9918;SDS011;4998;51.024;13.828;2023-01-01T05:40:57;6.73;;;2.20;;
9918;SDS011;4998;51.024;13.828;2023-01-01T05:43:24;3.60;;;2.10;;
9918;SDS011;4998;51.024;13.828;2023-01-01T05:45:59;4.70;;;2.00;;
9918;SDS011;4998;51.024;13.828;2023-01-01T05:48:26;6.00;;;2.03;;
9918;SDS011;4998;51.024;13.828;2023-01-01T05:50:54;2.90;;;2.13;;
9918;SDS011;4998;51.024;13.828;2023-01-01T05:53:27;6.90;;;2.27;;
9918;SDS011;4998;51.024;13.828;2023-01-01T05:55:54;6.63;;;2.10;;
9918;SDS011;4998;51.024;13.828;2023-01-01T05:58:22;3.07;;;1.80;;
9918;SDS011;4998;51.024;13.828;2023-01-01T06:00:49;3.87;;;1.63;;
9918;SDS011;4998;51.024;13.828;2023-01-01T06:03:18;2.10;;;1.90;;
9918;SDS011;4998;51.024;13.828;2023-01-01T06:05:46;3.70;;;1.77;;
9918;SDS011;4998;51.024;13.828;2023-01-01T06:08:13;3.33;;;2.00;;
9918;SDS011;4998;51.024;13.828;2023-01-01T06:10:40;2.70;;;2.00;;
9918;SDS011;4998;51.024;13.828;2023-01-01T06:13:07;4.07;;;1.90;;
9918;SDS011;4998;51.024;13.828;2023-01-01T06:15:34;5.30;;;2.27;;
9918;SDS011;4998;51.024;13.828;2023-01-01T06:18:01;3.30;;;2.10;;
9918;SDS011;4998;51.024;13.828;2023-01-01T06:20:29;4.70;;;1.90;;
9918;SDS011;4998;51.024;13.828;2023-01-01T06:22:57;6.67;;;2.17;;
9918;SDS011;4998;51.024;13.828;2023-01-01T06:25:24;5.13;;;2.20;;
9918;SDS011;4998;51.024;13.828;2023-01-01T06:27:51;3.87;;;2.27;;
9918;SDS011;4998;51.024;13.828;2023-01-01T06:30:18;4.00;;;2.07;;
9918;SDS011;4998;51.024;13.828;2023-01-01T06:32:45;5.70;;;2.20;;
9918;SDS011;4998;51.024;13.828;2023-01-01T06:35:12;5.60;;;2.20;;
9918;SDS011;4998;51.024;13.828;2023-01-01T06:37:40;2.70;;;2.17;;
9918;SDS011;4998;51.024;13.828;2023-01-01T06:40:08;4.03;;;2.20;;
9918;SDS011;4998;51.024;13.828;2023-01-01T06:42:35;6.03;;;1.97;;
9918;SDS011;4998;51.024;13.828;2023-01-01T06:45:03;2.20;;;2.00;;
9918;SDS011;4998;51.024;13.828;2023-01-01T06:47:32;2.77;;;2.03;;
9918;SDS011;4998;51.024;13.828;2023-01-01T06:49:59;2.97;;;2.37;;
9918;SDS011;4998;51.024;13.828;2023-01-01T06:52:26;2.10;;;1.90;;
9918;SDS011;4998;51.024;13.828;2023-01-01T06:54:55;2.93;;;2.00;;
9918;SDS011;4998;51.024;13.828;2023-01-01T06:57:22;2.70;;;2.50;;
9918;SDS011;4998;51.024;13.828;2023-01-01T06:59:49;3.53;;;2.00;;
9918;SDS011;4998;51.024;13.828;2023-01-01T07:02:16;3.30;;;2.40;;
9918;SDS011;4998;51.024;13.828;2023-01-01T07:04:43;2.97;;;2.40;;
9918;SDS011;4998;51.024;13.828;2023-01-01T07:07:10;2.57;;;2.37;;
9918;SDS011;4998;51.024;13.828;2023-01-01T07:09:37;2.73;;;2.40;;
9918;SDS011;4998;51.024;13.828;2023-01-01T07:12:06;4.67;;;2.53;;
9918;SDS011;4998;51.024;13.828;2023-01-01T07:14:33;2.37;;;2.17;;
9918;SDS011;4998;51.024;13.828;2023-01-01T07:17:00;2.67;;;2.30;;
9918;SDS011;4998;51.024;13.828;2023-01-01T07:19:27;2.97;;;2.40;;
9918;SDS011;4998;51.024;13.828;2023-01-01T07:21:54;2.50;;;2.40;;
9918;SDS011;4998;51.024;13.828;2023-01-01T07:24:21;2.60;;;2.10;;
9918;SDS011;4998;51.024;13.828;2023-01-01T07:26:48;5.33;;;2.20;;
9918;SDS011;4998;51.024;13.828;2023-01-01T07:29:16;3.00;;;2.47;;
9918;SDS011;4998;51.024;13.828;2023-01-01T07:31:43;2.70;;;2.13;;
9918;SDS011;4998;51.024;13.828;2023-01-01T07:34:11;4.03;;;2.43;;
9918;SDS011;4998;51.024;13.828;2023-01-01T07:36:40;3.50;;;2.80;;
9918;SDS011;4998;51.024;13.828;2023-01-01T07:39:07;2.83;;;2.50;;
9918;SDS011;4998;51.024;13.828;2023-01-01T07:41:35;3.87;;;2.30;;
9918;SDS011;4998;51.024;13.828;2023-01-01T07:44:03;2.80;;;2.43;;
9918;SDS011;4998;51.024;13.828;2023-01-01T07:46:34;3.53;;;2.50;;
9918;SDS011;4998;51.024;13.828;2023-01-01T07:49:01;3.30;;;2.63;;
9918;SDS011;4998;51.024;13.828;2023-01-01T07:51:28;2.87;;;2.63;;
9918;SDS011;4998;51.024;13.828;2023-01-01T07:53:55;3.60;;;2.77;;
9918;SDS011;4998;51.024;13.828;2023-01-01T07:56:22;3.23;;;2.90;;
9918;SDS011;4998;51.024;13.828;2023-01-01T07:58:49;3.23;;;2.87;;
9918;SDS011;4998;51.024;13.828;2023-01-01T08:01:16;2.73;;;2.50;;
9918;SDS011;4998;51.024;13.828;2023-01-01T08:03:46;3.50;;;2.90;;
9918;SDS011;4998;51.024;13.828;2023-01-01T08:06:16;4.13;;;2.73;;
9918;SDS011;4998;51.024;13.828;2023-01-01T08:08:43;3.20;;;2.67;;
9918;SDS011;4998;51.024;13.828;2023-01-01T08:11:10;4.63;;;2.47;;
9918;SDS011;4998;51.024;13.828;2023-01-01T08:13:37;7.40;;;2.70;;
9918;SDS011;4998;51.024;13.828;2023-01-01T08:16:05;2.80;;;2.60;;
9918;SDS011;4998;51.024;13.828;2023-01-01T08:18:32;2.93;;;2.50;;
9918;SDS011;4998;51.024;13.828;2023-01-01T08:21:01;4.30;;;2.60;;
9918;SDS011;4998;51.024;13.828;2023-01-01T08:23:28;2.73;;;2.53;;
9918;SDS011;4998;51.024;13.828;2023-01-01T08:25:57;3.87;;;2.20;;
9918;SDS011;4998;51.024;13.828;2023-01-01T08:28:25;4.63;;;2.70;;
9918;SDS011;4998;51.024;13.828;2023-01-01T08:30:52;3.80;;;2.70;;
9918;SDS011;4998;51.024;13.828;2023-01-01T08:33:20;3.00;;;2.40;;
9918;SDS011;4998;51.024;13.828;2023-01-01T08:35:47;3.87;;;2.77;;
9918;SDS011;4998;51.024;13.828;2023-01-01T08:38:15;2.77;;;2.43;;
9918;SDS011;4998;51.024;13.828;2023-01-01T08:40:42;5.10;;;2.90;;
9918;SDS011;4998;51.024;13.828;2023-01-01T08:43:09;4.30;;;2.57;;
9918;SDS011;4998;51.024;13.828;2023-01-01T08:45:36;2.60;;;2.40;;
9918;SDS011;4998;51.024;13.828;2023-01-01T08:48:04;2.87;;;2.53;;
9918;SDS011;4998;51.024;13.828;2023-01-01T08:50:31;4.77;;;2.80;;
9918;SDS011;4998;51.024;13.828;2023-01-01T08:52:58;2.93;;;2.40;;
9918;SDS011;4998;51.024;13.828;2023-01-01T08:55:27;5.83;;;2.90;;
9918;SDS011;4998;51.024;13.828;2023-01-01T08:57:55;3.13;;;2.53;;
9918;SDS011;4998;51.024;13.828;2023-01-01T09:00:22;5.13;;;3.47;;
9918;SDS011;4998;51.024;13.828;2023-01-01T09:02:49;3.10;;;2.37;;
9918;SDS011;4998;51.024;13.828;2023-01-01T09:05:16;2.67;;;2.43;;
9918;SDS011;4998;51.024;13.828;2023-01-01T09:07:43;2.77;;;1.90;;
9918;SDS011;4998;51.024;13.828;2023-01-01T09:10:10;4.33;;;2.90;;
9918;SDS011;4998;51.024;13.828;2023-01-01T09:12:39;3.27;;;2.53;;
9918;SDS011;4998;51.024;13.828;2023-01-01T09:15:08;3.87;;;2.40;;
9918;SDS011;4998;51.024;13.828;2023-01-01T09:17:41;3.73;;;2.37;;
9918;SDS011;4998;51.024;13.828;2023-01-01T09:20:08;3.40;;;2.40;;
9918;SDS011;4998;51.024;13.828;2023-01-01T09:22:35;4.60;;;2.80;;
9918;SDS011;4998;51.024;13.828;2023-01-01T09:25:02;6.00;;;2.63;;
9918;SDS011;4998;51.024;13.828;2023-01-01T09:27:30;2.63;;;2.40;;
9918;SDS011;4998;51.024;13.828;2023-01-01T09:29:58;4.30;;;2.47;;
9918;SDS011;4998;51.024;13.828;2023-01-01T09:32:25;2.73;;;2.53;;
9918;SDS011;4998;51.024;13.828;2023-01-01T09:34:52;3.00;;;2.60;;
9918;SDS011;4998;51.024;13.828;2023-01-01T09:37:21;2.87;;;2.57;;
9918;SDS011;4998;51.024;13.828;2023-01-01T09:39:48;2.40;;;2.20;;
9918;SDS011;4998;51.024;13.828;2023-01-01T09:42:19;2.67;;;2.20;;
9918;SDS011;4998;51.024;13.828;2023-01-01T09:44:59;2.20;;;2.00;;
9918;SDS011;4998;51.024;13.828;2023-01-01T09:47:36;4.23;;;2.30;;
9918;SDS011;4998;51.024;13.828;2023-01-01T09:50:05;4.47;;;2.20;;
9918;SDS011;4998;51.024;13.828;2023-01-01T09:52:40;4.50;;;2.40;;
9918;SDS011;4998;51.024;13.828;2023-01-01T09:55:17;7.77;;;2.33;;
9918;SDS011;4998;51.024;13.828;2023-01-01T09:57:49;2.47;;;2.20;;
9918;SDS011;4998;51.024;13.828;2023-01-01T10:00:18;2.10;;;1.90;;
9918;SDS011;4998;51.024;13.828;2023-01-01T10:02:50;4.13;;;2.40;;
9918;SDS011;4998;51.024;13.828;2023-01-01T10:05:39;2.00;;;1.80;;
9918;SDS011;4998;51.024;13.828;2023-01-01T10:08:16;4.60;;;2.40;;
9918;SDS011;4998;51.024;13.828;2023-01-01T10:10:56;2.83;;;2.10;;
9918;SDS011;4998;51.024;13.828;2023-01-01T10:13:31;3.47;;;2.70;;
9918;SDS011;4998;51.024;13.828;2023-01-01T10:16:08;3.70;;;2.37;;
9918;SDS011;4998;51.024;13.828;2023-01-01T10:18:38;4.03;;;2.40;;
9918;SDS011;4998;51.024;13.828;2023-01-01T10:21:09;3.37;;;2.30;;
9918;SDS011;4998;51.024;13.828;2023-01-01T10:23:42;2.30;;;2.00;;
9918;SDS011;4998;51.024;13.828;2023-01-01T10:26:14;4.50;;;2.10;;
9918;SDS011;4998;51.024;13.828;2023-01-01T10:28:46;2.10;;;1.90;;
9918;SDS011;4998;51.024;13.828;2023-01-01T10:31:23;2.20;;;2.00;;
9918;SDS011;4998;51.024;13.828;2023-01-01T10:33:54;4.77;;;2.00;;
9918;SDS011;4998;51.024;13.828;2023-01-01T10:36:22;2.77;;;2.23;;
9918;SDS011;4998;51.024;13.828;2023-01-01T10:38:51;3.10;;;2.00;;
9918;SDS011;4998;51.024;13.828;2023-01-01T10:41:18;3.13;;;2.23;;
9918;SDS011;4998;51.024;13.828;2023-01-01T10:43:45;2.73;;;1.63;;
9918;SDS011;4998;51.024;13.828;2023-01-01T10:46:14;3.80;;;2.03;;
9918;SDS011;4998;51.024;13.828;2023-01-01T10:51:36;7.93;;;2.30;;
9918;SDS011;4998;51.024;13.828;2023-01-01T10:54:22;3.10;;;2.43;;
9918;SDS011;4998;51.024;13.828;2023-01-01T10:56:57;2.53;;;1.70;;
9918;SDS011;4998;51.024;13.828;2023-01-01T10:59:34;4.53;;;2.47;;
9918;SDS011;4998;51.024;13.828;2023-01-01T11:02:19;5.57;;;2.20;;
9918;SDS011;4998;51.024;13.828;2023-01-01T11:04:48;3.37;;;2.17;;
9918;SDS011;4998;51.024;13.828;2023-01-01T11:07:23;2.90;;;2.00;;
9918;SDS011;4998;51.024;13.828;2023-01-01T11:09:54;2.50;;;1.93;;
9918;SDS011;4998;51.024;13.828;2023-01-01T11:12:26;2.67;;;1.87;;
9918;SDS011;4998;51.024;13.828;2023-01-01T11:14:56;4.60;;;1.90;;
9918;SDS011;4998;51.024;13.828;2023-01-01T11:17:24;8.37;;;2.20;;
9918;SDS011;4998;51.024;13.828;2023-01-01T11:19:55;2.80;;;1.90;;
9918;SDS011;4998;51.024;13.828;2023-01-01T11:22:34;4.90;;;1.80;;
9918;SDS011;4998;51.024;13.828;2023-01-01T11:25:16;3.77;;;2.10;;
9918;SDS011;4998;51.024;13.828;2023-01-01T11:27:48;4.67;;;2.27;;
9918;SDS011;4998;51.024;13.828;2023-01-01T11:30:20;2.90;;;1.90;;
9918;SDS011;4998;51.024;13.828;2023-01-01T11:32:50;2.80;;;2.03;;
9918;SDS011;4998;51.024;13.828;2023-01-01T11:35:22;4.20;;;1.80;;
9918;SDS011;4998;51.024;13.828;2023-01-01T11:37:51;20.07;;;16.80;;
9918;SDS011;4998;51.024;13.828;2023-01-01T11:40:20;7.50;;;5.80;;
9918;SDS011;4998;51.024;13.828;2023-01-01T11:42:50;3.80;;;2.77;;
9918;SDS011;4998;51.024;13.828;2023-01-01T11:45:20;3.03;;;2.47;;
9918;SDS011;4998;51.024;13.828;2023-01-01T11:47:50;2.93;;;1.97;;
9918;SDS011;4998;51.024;13.828;2023-01-01T11:50:23;5.30;;;2.20;;
9918;SDS011;4998;51.024;13.828;2023-01-01T11:52:54;4.27;;;1.90;;
9918;SDS011;4998;51.024;13.828;2023-01-01T11:55:26;2.10;;;1.90;;
9918;SDS011;4998;51.024;13.828;2023-01-01T11:58:03;2.40;;;1.87;;
9918;SDS011;4998;51.024;13.828;2023-01-01T12:00:37;24.97;;;20.50;;
9918;SDS011;4998;51.024;13.828;2023-01-01T12:03:09;30.10;;;22.33;;
9918;SDS011;4998;51.024;13.828;2023-01-01T12:05:46;18.60;;;15.27;;
9918;SDS011;4998;51.024;13.828;2023-01-01T12:08:18;10.67;;;7.60;;
9918;SDS011;4998;51.024;13.828;2023-01-01T12:10:53;5.67;;;3.93;;
9918;SDS011;4998;51.024;13.828;2023-01-01T12:13:26;4.40;;;3.23;;
9918;SDS011;4998;51.024;13.828;2023-01-01T12:15:58;4.67;;;2.63;;
9918;SDS011;4998;51.024;13.828;2023-01-01T12:18:33;4.47;;;2.60;;
9918;SDS011;4998;51.024;13.828;2023-01-01T12:21:09;4.10;;;2.03;;
9918;SDS011;4998;51.024;13.828;2023-01-01T12:23:40;10.60;;;9.57;;
9918;SDS011;4998;51.024;13.828;2023-01-01T12:26:10;25.87;;;20.30;;
9918;SDS011;4998;51.024;13.828;2023-01-01T12:28:45;21.23;;;11.50;;
9918;SDS011;4998;51.024;13.828;2023-01-01T12:31:26;9.80;;;6.60;;
9918;SDS011;4998;51.024;13.828;2023-01-01T12:34:06;6.10;;;3.60;;
9918;SDS011;4998;51.024;13.828;2023-01-01T12:36:43;5.67;;;3.27;;
9918;SDS011;4998;51.024;13.828;2023-01-01T12:42:17;3.50;;;2.20;;
9918;SDS011;4998;51.024;13.828;2023-01-01T12:45:03;6.03;;;2.60;;
9918;SDS011;4998;51.024;13.828;2023-01-01T12:47:43;10.20;;;6.77;;
9918;SDS011;4998;51.024;13.828;2023-01-01T12:50:19;19.80;;;13.60;;
9918;SDS011;4998;51.024;13.828;2023-01-01T12:52:58;10.13;;;7.97;;
9918;SDS011;4998;51.024;13.828;2023-01-01T12:55:52;7.37;;;4.70;;
9918;SDS011;4998;51.024;13.828;2023-01-01T12:58:33;5.80;;;2.90;;
9918;SDS011;4998;51.024;13.828;2023-01-01T13:01:05;2.90;;;2.57;;
9918;SDS011;4998;51.024;13.828;2023-01-01T13:03:37;5.20;;;2.57;;
9918;SDS011;4998;51.024;13.828;2023-01-01T13:06:13;3.53;;;2.17;;
9918;SDS011;4998;51.024;13.828;2023-01-01T13:08:46;2.93;;;2.00;;
9918;SDS011;4998;51.024;13.828;2023-01-01T13:11:22;4.63;;;2.37;;
9918;SDS011;4998;51.024;13.828;2023-01-01T13:13:51;3.73;;;2.10;;
9918;SDS011;4998;51.024;13.828;2023-01-01T13:16:31;3.07;;;2.17;;
9918;SDS011;4998;51.024;13.828;2023-01-01T13:19:02;4.13;;;2.17;;
9918;SDS011;4998;51.024;13.828;2023-01-01T13:21:30;4.07;;;2.00;;
9918;SDS011;4998;51.024;13.828;2023-01-01T13:26:48;3.30;;;1.90;;
9918;SDS011;4998;51.024;13.828;2023-01-01T13:32:11;4.03;;;2.10;;
9918;SDS011;4998;51.024;13.828;2023-01-01T13:37:42;3.00;;;2.20;;
9918;SDS011;4998;51.024;13.828;2023-01-01T13:40:46;2.20;;;2.00;;
9918;SDS011;4998;51.024;13.828;2023-01-01T13:43:24;4.23;;;2.00;;
9918;SDS011;4998;51.024;13.828;2023-01-01T13:45:53;3.10;;;2.23;;
9918;SDS011;4998;51.024;13.828;2023-01-01T13:48:31;2.97;;;2.17;;
9918;SDS011;4998;51.024;13.828;2023-01-01T13:51:16;5.47;;;2.03;;
9918;SDS011;4998;51.024;13.828;2023-01-01T13:53:59;2.83;;;2.00;;
9918;SDS011;4998;51.024;13.828;2023-01-01T13:56:47;3.00;;;2.20;;
9918;SDS011;4998;51.024;13.828;2023-01-01T14:02:19;2.93;;;1.80;;
9918;SDS011;4998;51.024;13.828;2023-01-01T14:04:51;2.93;;;1.90;;
9918;SDS011;4998;51.024;13.828;2023-01-01T14:07:25;5.83;;;2.53;;
9918;SDS011;4998;51.024;13.828;2023-01-01T14:10:17;4.90;;;2.23;;
9918;SDS011;4998;51.024;13.828;2023-01-01T14:12:47;3.67;;;1.90;;
9918;SDS011;4998;51.024;13.828;2023-01-01T14:15:15;5.33;;;2.33;;
9918;SDS011;4998;51.024;13.828;2023-01-01T14:17:49;5.87;;;2.47;;
9918;SDS011;4998;51.024;13.828;2023-01-01T14:20:17;3.00;;;2.03;;
9918;SDS011;4998;51.024;13.828;2023-01-01T14:22:47;3.60;;;2.10;;
9918;SDS011;4998;51.024;13.828;2023-01-01T14:25:19;4.40;;;2.33;;
9918;SDS011;4998;51.024;13.828;2023-01-01T14:27:53;5.83;;;2.00;;
9918;SDS011;4998;51.024;13.828;2023-01-01T14:30:23;4.90;;;2.30;;
9918;SDS011;4998;51.024;13.828;2023-01-01T14:32:57;6.30;;;2.13;;
9918;SDS011;4998;51.024;13.828;2023-01-01T14:35:25;3.93;;;2.03;;
9918;SDS011;4998;51.024;13.828;2023-01-01T14:37:53;3.70;;;2.13;;
9918;SDS011;4998;51.024;13.828;2023-01-01T14:40:21;4.10;;;2.60;;
9918;SDS011;4998;51.024;13.828;2023-01-01T14:42:58;3.80;;;2.13;;
9918;SDS011;4998;51.024;13.828;2023-01-01T14:45:27;3.87;;;2.20;;
9918;SDS011;4998;51.024;13.828;2023-01-01T14:47:57;4.40;;;2.43;;
9918;SDS011;4998;51.024;13.828;2023-01-01T14:50:26;4.67;;;3.03;;
9918;SDS011;4998;51.024;13.828;2023-01-01T14:52:56;5.17;;;3.40;;
9918;SDS011;4998;51.024;13.828;2023-01-01T14:55:30;3.60;;;2.73;;
9918;SDS011;4998;51.024;13.828;2023-01-01T14:58:00;9.20;;;2.93;;
9918;SDS011;4998;51.024;13.828;2023-01-01T15:00:28;5.73;;;2.60;;
9918;SDS011;4998;51.024;13.828;2023-01-01T15:03:03;5.90;;;2.90;;
9918;SDS011;4998;51.024;13.828;2023-01-01T15:05:37;4.30;;;2.47;;
9918;SDS011;4998;51.024;13.828;2023-01-01T15:08:06;4.77;;;2.63;;
9918;SDS011;4998;51.024;13.828;2023-01-01T15:10:43;5.53;;;2.27;;
9918;SDS011;4998;51.024;13.828;2023-01-01T15:13:13;3.87;;;2.67;;
9918;SDS011;4998;51.024;13.828;2023-01-01T15:15:44;6.43;;;2.40;;
9918;SDS011;4998;51.024;13.828;2023-01-01T15:21:11;4.57;;;2.80;;
9918;SDS011;4998;51.024;13.828;2023-01-01T15:23:47;5.67;;;3.23;;
9918;SDS011;4998;51.024;13.828;2023-01-01T15:26:23;8.20;;;3.87;;
9918;SDS011;4998;51.024;13.828;2023-01-01T15:28:55;6.93;;;4.50;;
9918;SDS011;4998;51.024;13.828;2023-01-01T15:31:22;15.63;;;4.90;;
9918;SDS011;4998;51.024;13.828;2023-01-01T15:34:00;8.83;;;2.90;;
9918;SDS011;4998;51.024;13.828;2023-01-01T15:36:27;10.53;;;3.13;;
9918;SDS011;4998;51.024;13.828;2023-01-01T15:38:54;7.27;;;2.90;;
9918;SDS011;4998;51.024;13.828;2023-01-01T15:41:22;8.23;;;2.63;;
9918;SDS011;4998;51.024;13.828;2023-01-01T15:43:51;4.57;;;3.20;;